Pipe Spring National Monumen, Arizona
Current Conditions -  °F | °C
As of 12:35 PM on Thursday 27 Nov 2014 (Local Time) from KAZC Reporting Station
Clear Clear  
Wind Chill: 66°   Ceiling: Unl
Heat Index: 66°   Visibility: 10mi
Dew Point: 17°   Wind: 8mph
Humidity: 15%   Direction: 140°SE
Pressure: 30.36"   Gusts: NA
Location:  36.9484°N, 112.529°W
Report Text: KAZC 271935Z AUTO 14007KT 10SM CLR 19/M08 A3036 RMK AO2 T01901082
Loading
Personal Weather Stations






























Interactive Weather Map New forecast layout! Learn more

10-Day Weather Forecast

Advertisements
Track Severe Weather on mobile